Time;durP1;ratioP1;P1;durP2;ratioP2;P2;SDS_P1;SDS_P2;PMS_P1;PMS_P2;Temp;Humidity;BMP_temperature;BMP_pressure;BME280_temperature;BME280_humidity;BME280_pressure;Samples;Min_cycle;Max_cycle;Signal;HPM_P1;HPM_P2
2022/06/27 00:00:19;;;;;;;;;;;29.50;50.80;;;;;;684837;29;1260;-87
2022/06/27 00:00:39;;;;;;;;;;;29.50;50.40;;;;;;683942;29;939;-86
2022/06/27 00:01:00;;;;;;;;;;;29.50;50.90;;;;;;683803;29;935;-88
2022/06/27 00:01:20;;;;;;;;;;;29.40;50.40;;;;;;683668;29;517;-89
2022/06/27 00:01:41;;;;;;;;;;;29.50;50.40;;;;;;683854;29;804;-92
2022/06/27 00:02:02;;;;;;;;;;;29.50;50.50;;;;;;682428;29;1339;-93
2022/06/27 00:02:25;;;;;;;;;;;29.40;50.40;;;;;;684374;29;823;-93
2022/06/27 00:02:47;;;;;;;;;;;29.50;50.40;;;;;;684257;29;899;-96
2022/06/27 00:03:08;;;;;;;;;;;29.40;50.20;;;;;;685474;29;1068;-95
2022/06/27 00:03:28;;;;;;;;;;;29.50;50.30;;;;;;684694;29;910;-94
2022/06/27 00:03:49;;;;;;;;;;;29.40;50.30;;;;;;684805;28;1612;-94
2022/06/27 00:04:10;;;;;;;;;;;29.40;50.40;;;;;;684122;29;1716;-89
2022/06/27 00:04:30;;;;;;;;;;;29.40;50.80;;;;;;686148;29;1116;-87
2022/06/27 00:04:51;;;;;;;;;;;29.40;50.90;;;;;;686137;29;1220;-87
2022/06/27 00:05:12;;;;;;;;;;;29.40;51.20;;;;;;686408;29;1129;-86
2022/06/27 00:05:33;;;;;;;;;;;29.40;51.80;;;;;;686671;29;868;-91
2022/06/27 00:05:53;;;;;;;;;;;29.40;53.30;;;;;;686196;28;1176;-89
2022/06/27 00:06:14;;;;;;;;;;;29.40;52.20;;;;;;686527;29;827;-94
2022/06/27 00:06:35;;;;;;;;;;;29.40;51.10;;;;;;686742;29;1006;-88
2022/06/27 00:07:07;;;;;;;;;;;29.40;51.70;;;;;;684063;29;1307;-92
2022/06/27 00:07:28;;;;;;;;;;;29.30;50.90;;;;;;689113;28;1030;-91
2022/06/27 00:07:48;;;;;;;;;;;29.60;55.30;;;;;;686661;28;1350;-90
2022/06/27 00:08:09;;;;;;;;;;;29.50;53.80;;;;;;683695;29;1301;-90
2022/06/27 00:08:30;;;;;;;;;;;29.40;52.90;;;;;;684050;29;1880;-89
2022/06/27 00:08:51;;;;;;;;;;;29.40;52.20;;;;;;683786;29;1267;-89
2022/06/27 00:09:11;;;;;;;;;;;29.40;54.80;;;;;;678760;29;1222;-93
2022/06/27 00:09:32;;;;;;;;;;;29.40;54.90;;;;;;681534;29;1088;-89
2022/06/27 00:09:52;;;;;;;;;;;29.40;56.50;;;;;;682858;29;1368;-93
2022/06/27 00:10:13;;;;;;;;;;;29.70;55.10;;;;;;681716;28;1214;-94
2022/06/27 00:10:35;;;;;;;;;;;29.40;52.80;;;;;;680987;29;1224;-92
2022/06/27 00:10:55;;;;;;;;;;;29.40;52.00;;;;;;678528;29;1199;-92
2022/06/27 00:11:16;;;;;;;;;;;29.40;52.30;;;;;;680508;29;1313;-90
2022/06/27 00:11:37;;;;;;;;;;;29.40;52.40;;;;;;678275;29;1376;-95
2022/06/27 00:11:59;;;;;;;;;;;29.40;53.70;;;;;;678528;29;1348;-92
2022/06/27 00:12:20;;;;;;;;;;;29.40;53.20;;;;;;677908;29;1491;-93
2022/06/27 00:12:40;;;;;;;;;;;29.60;54.60;;;;;;677922;29;1173;-95
2022/06/27 00:13:01;;;;;;;;;;;29.40;54.30;;;;;;678730;29;1226;-96
2022/06/27 00:13:21;;;;;;;;;;;29.40;52.90;;;;;;680779;29;1331;-95
2022/06/27 00:13:43;;;;;;;;;;;29.40;52.90;;;;;;678436;29;1481;-93
2022/06/27 00:14:03;;;;;;;;;;;29.40;52.30;;;;;;677997;29;1291;-92
2022/06/27 00:14:24;;;;;;;;;;;29.40;51.80;;;;;;677549;29;1664;-94
2022/06/27 00:14:44;;;;;;;;;;;29.40;52.50;;;;;;677879;29;1691;-94
2022/06/27 00:15:06;;;;;;;;;;;29.40;54.40;;;;;;677766;29;1680;-93
2022/06/27 00:15:26;;;;;;;;;;;29.40;53.40;;;;;;676260;29;1358;-96
2022/06/27 00:15:48;;;;;;;;;;;29.40;55.70;;;;;;678772;29;1269;-96
2022/06/27 00:16:08;;;;;;;;;;;29.40;55.20;;;;;;683516;29;1365;-94
2022/06/27 00:16:31;;;;;;;;;;;29.40;57.90;;;;;;683375;29;907;-94
2022/06/27 00:16:51;;;;;;;;;;;27.20;54.30;;;;;;681506;29;1222;-93
2022/06/27 00:17:12;;;;;;;;;;;29.50;55.70;;;;;;682885;28;1226;-90
2022/06/27 00:17:33;;;;;;;;;;;29.50;55.70;;;;;;682662;29;1223;-96
2022/06/27 00:17:54;;;;;;;;;;;29.50;55.50;;;;;;683140;29;1482;-96
2022/06/27 00:18:15;;;;;;;;;;;29.50;58.10;;;;;;680244;29;1699;-96
2022/06/27 00:18:37;;;;;;;;;;;29.50;59.60;;;;;;680343;29;1680;-92
2022/06/27 00:18:58;;;;;;;;;;;29.40;58.10;;;;;;679829;29;1764;-95
2022/06/27 00:19:19;;;;;;;;;;;29.50;55.80;;;;;;678948;29;1132;-94
2022/06/27 00:19:40;;;;;;;;;;;29.50;57.60;;;;;;681264;29;1297;-94
2022/06/27 00:20:01;;;;;;;;;;;29.50;57.30;;;;;;682087;29;1414;-93
2022/06/27 00:20:24;;;;;;;;;;;29.50;57.70;;;;;;684343;29;1687;-96
2022/06/27 00:20:53;;;;;;;;;;;29.70;56.50;;;;;;685560;29;1254;-96
2022/06/27 00:21:15;;;;;;;;;;;29.70;55.50;;;;;;679865;29;1371;-95
2022/06/27 00:21:36;;;;;;;;;;;29.50;57.80;;;;;;680420;29;1339;-94
2022/06/27 00:22:04;;;;;;;;;;;29.50;59.80;;;;;;682071;29;951;-96
2022/06/27 00:22:25;;;;;;;;;;;30.10;56.20;;;;;;678022;29;1239;-94
2022/06/27 00:22:47;;;;;;;;;;;29.50;57.70;;;;;;679066;29;835;-95
2022/06/27 00:23:31;;;;;;;;;;;29.70;57.40;;;;;;684305;29;1356;-93
2022/06/27 00:24:28;;;;;;;;;;;27.60;55.10;;;;;;683548;29;1080;-93
2022/06/27 00:24:58;;;;;;;;;;;31.20;58.90;;;;;;685512;29;965;-96
2022/06/27 00:25:20;;;;;;;;;;;29.60;57.40;;;;;;684568;29;1849;-91
2022/06/27 00:26:01;;;;;;;;;;;29.60;58.10;;;;;;693011;23;1766;-93
2022/06/27 00:26:22;;;;;;;;;;;29.60;57.50;;;;;;686506;28;1266;-96
2022/06/27 00:26:44;;;;;;;;;;;29.60;57.40;;;;;;689128;28;1094;-94
2022/06/27 00:27:05;;;;;;;;;;;29.60;55.70;;;;;;686450;28;1180;-95
2022/06/27 00:27:26;;;;;;;;;;;29.60;56.70;;;;;;683382;29;1325;-95
2022/06/27 00:27:46;;;;;;;;;;;29.60;57.90;;;;;;683429;29;847;-94
2022/06/27 00:28:07;;;;;;;;;;;29.60;57.80;;;;;;680830;29;1140;-95
2022/06/27 00:28:32;;;;;;;;;;;31.40;58.80;;;;;;679900;29;1915;-93
2022/06/27 00:28:53;;;;;;;;;;;29.60;58.90;;;;;;679073;29;1346;-92
2022/06/27 00:29:13;;;;;;;;;;;29.60;57.50;;;;;;682352;29;1178;-90
2022/06/27 00:29:34;;;;;;;;;;;29.60;57.70;;;;;;684008;29;835;-91
2022/06/27 00:29:54;;;;;;;;;;;29.60;57.00;;;;;;681222;29;1294;-92
2022/06/27 00:30:15;;;;;;;;;;;29.60;55.70;;;;;;683680;29;926;-92
2022/06/27 00:30:37;;;;;;;;;;;29.60;56.70;;;;;;687583;28;1121;-94
2022/06/27 00:30:57;;;;;;;;;;;29.80;58.20;;;;;;684880;29;1511;-93
2022/06/27 00:32:08;;;;;;;;;;;32.20;58.10;;;;;;696104;23;1586;-95
2022/06/27 00:32:29;;;;;;;;;;;29.60;60.90;;;;;;688235;28;970;-96
2022/06/27 00:32:49;;;;;;;;;;;29.70;58.30;;;;;;689095;28;944;-91
2022/06/27 00:33:10;;;;;;;;;;;29.50;58.70;;;;;;686872;28;1342;-94
2022/06/27 00:33:31;;;;;;;;;;;29.70;59.50;;;;;;688391;28;1345;-95
2022/06/27 00:34:16;;;;;;;;;;;29.60;58.20;;;;;;688544;28;1091;-92
2022/06/27 00:35:05;;;;;;;;;;;29.70;58.20;;;;;;685807;29;1222;-90
2022/06/27 00:35:26;;;;;;;;;;;29.50;57.30;;;;;;684623;28;946;-96
2022/06/27 00:35:49;;;;;;;;;;;29.60;60.60;;;;;;684512;28;1723;-96
2022/06/27 00:36:21;;;;;;;;;;;29.60;55.20;;;;;;685441;28;1397;-96
2022/06/27 00:37:02;;;;;;;;;;;29.60;58.30;;;;;;744916;23;1754;-96
2022/06/27 00:37:24;;;;;;;;;;;29.60;57.80;;;;;;688271;28;1364;-94
2022/06/27 00:37:46;;;;;;;;;;;29.60;58.70;;;;;;686719;28;1194;-96
2022/06/27 00:38:10;;;;;;;;;;;29.80;58.00;;;;;;688287;28;914;-96
2022/06/27 00:38:31;;;;;;;;;;;31.60;57.80;;;;;;684741;28;1492;-95
2022/06/27 00:38:51;;;;;;;;;;;29.60;58.60;;;;;;683712;29;1206;-91
2022/06/27 00:39:12;;;;;;;;;;;29.80;61.20;;;;;;683214;29;1691;-90
2022/06/27 00:39:32;;;;;;;;;;;29.70;62.20;;;;;;683145;28;1623;-90
2022/06/27 00:39:53;;;;;;;;;;;29.70;60.20;;;;;;683417;29;1441;-81
2022/06/27 00:40:14;;;;;;;;;;;29.70;63.00;;;;;;683831;28;772;-89
2022/06/27 00:40:34;;;;;;;;;;;29.60;61.10;;;;;;685835;28;1615;-89
2022/06/27 00:40:55;;;;;;;;;;;29.70;59.50;;;;;;686025;28;1618;-90
2022/06/27 00:41:16;;;;;;;;;;;29.70;58.00;;;;;;686279;28;823;-89
2022/06/27 00:41:36;;;;;;;;;;;29.70;57.50;;;;;;686221;28;1591;-90
2022/06/27 00:41:57;;;;;;;;;;;29.70;56.60;;;;;;686345;28;1704;-91
2022/06/27 00:42:17;;;;;;;;;;;29.60;55.70;;;;;;686402;28;1662;-90
2022/06/27 00:42:38;;;;;;;;;;;29.60;56.10;;;;;;686776;28;855;-90
2022/06/27 00:42:58;;;;;;;;;;;29.60;55.70;;;;;;686704;28;890;-91
2022/06/27 00:43:19;;;;;;;;;;;29.70;56.60;;;;;;686541;28;870;-89
2022/06/27 00:43:43;;;;;;;;;;;29.70;55.30;;;;;;686404;28;937;-89
2022/06/27 00:44:04;;;;;;;;;;;29.60;55.10;;;;;;686386;28;1693;-90
2022/06/27 00:44:31;;;;;;;;;;;29.70;55.30;;;;;;686438;28;1753;-90
2022/06/27 00:44:52;;;;;;;;;;;29.60;55.30;;;;;;686553;28;807;-90
2022/06/27 00:45:12;;;;;;;;;;;29.60;55.30;;;;;;686476;28;899;-90
2022/06/27 00:45:33;;;;;;;;;;;29.60;56.20;;;;;;686538;28;807;-90
2022/06/27 00:45:53;;;;;;;;;;;29.60;55.30;;;;;;686334;28;886;-88
2022/06/27 00:46:14;;;;;;;;;;;29.60;54.60;;;;;;686416;28;819;-89
2022/06/27 00:46:34;;;;;;;;;;;29.70;54.90;;;;;;686485;28;780;-88
2022/06/27 00:46:55;;;;;;;;;;;29.60;54.30;;;;;;686301;28;814;-90
2022/06/27 00:47:16;;;;;;;;;;;29.60;54.60;;;;;;686460;28;914;-88
2022/06/27 00:47:37;;;;;;;;;;;32.00;56.60;;;;;;687789;28;1448;-92
2022/06/27 00:47:57;;;;;;;;;;;29.60;54.20;;;;;;686225;28;1531;-88
2022/06/27 00:48:18;;;;;;;;;;;29.60;53.80;;;;;;685782;28;1504;-86
2022/06/27 00:48:39;;;;;;;;;;;29.60;53.80;;;;;;686402;28;1883;-88
2022/06/27 00:48:59;;;;;;;;;;;29.60;53.70;;;;;;686307;28;1294;-86
2022/06/27 00:49:20;;;;;;;;;;;29.60;53.50;;;;;;686429;28;799;-86
2022/06/27 00:49:41;;;;;;;;;;;29.60;53.70;;;;;;686253;28;1316;-89
2022/06/27 00:50:02;;;;;;;;;;;29.60;54.10;;;;;;686353;28;942;-89
2022/06/27 00:50:23;;;;;;;;;;;29.60;53.00;;;;;;686214;28;1602;-90
2022/06/27 00:50:43;;;;;;;;;;;29.60;53.20;;;;;;686434;28;803;-84
2022/06/27 00:51:05;;;;;;;;;;;29.60;54.10;;;;;;688073;28;792;-82
2022/06/27 00:51:25;;;;;;;;;;;29.60;55.10;;;;;;689557;28;859;-84
2022/06/27 00:51:46;;;;;;;;;;;29.60;53.50;;;;;;689602;28;820;-84
2022/06/27 00:52:08;;;;;;;;;;;29.60;52.50;;;;;;689313;28;768;-85
2022/06/27 00:52:29;;;;;;;;;;;29.60;52.90;;;;;;689384;28;998;-86
2022/06/27 00:52:49;;;;;;;;;;;29.60;52.70;;;;;;689365;28;942;-88
2022/06/27 00:53:11;;;;;;;;;;;31.60;54.20;;;;;;689414;28;842;-81
2022/06/27 00:53:33;;;;;;;;;;;29.60;52.50;;;;;;689818;28;962;-85
2022/06/27 00:53:54;;;;;;;;;;;29.60;52.70;;;;;;689606;28;866;-82
2022/06/27 00:54:15;;;;;;;;;;;29.80;52.80;;;;;;689657;28;921;-85
2022/06/27 00:54:36;;;;;;;;;;;29.60;52.40;;;;;;689577;28;1392;-84
2022/06/27 00:54:57;;;;;;;;;;;29.60;52.30;;;;;;689771;28;1193;-82
2022/06/27 00:55:17;;;;;;;;;;;29.50;52.50;;;;;;689454;28;1138;-86
2022/06/27 00:55:39;;;;;;;;;;;29.50;52.00;;;;;;689102;28;1729;-87
2022/06/27 00:56:00;;;;;;;;;;;29.50;52.60;;;;;;688770;28;954;-79
2022/06/27 00:56:20;;;;;;;;;;;29.50;52.00;;;;;;689099;28;1635;-89
2022/06/27 00:56:41;;;;;;;;;;;29.50;51.80;;;;;;688294;28;1005;-83
2022/06/27 00:57:02;;;;;;;;;;;29.50;51.80;;;;;;686255;28;622;-79
2022/06/27 00:57:23;;;;;;;;;;;29.50;52.50;;;;;;686831;28;883;-87
2022/06/27 00:57:44;;;;;;;;;;;29.50;52.40;;;;;;688927;28;1666;-84
2022/06/27 00:58:05;;;;;;;;;;;29.50;52.10;;;;;;686816;28;1048;-88
2022/06/27 00:58:25;;;;;;;;;;;29.50;52.00;;;;;;686579;28;909;-89
2022/06/27 00:58:46;;;;;;;;;;;29.50;52.10;;;;;;686530;28;863;-89
2022/06/27 00:59:06;;;;;;;;;;;29.50;52.20;;;;;;686648;28;779;-89
2022/06/27 00:59:27;;;;;;;;;;;29.50;52.10;;;;;;686180;28;1638;-89
2022/06/27 00:59:47;;;;;;;;;;;29.50;52.10;;;;;;686263;28;957;-85
2022/06/27 01:00:08;;;;;;;;;;;29.50;52.80;;;;;;686417;28;878;-88
2022/06/27 01:00:29;;;;;;;;;;;29.50;52.00;;;;;;686592;28;1198;-88
2022/06/27 01:00:49;;;;;;;;;;;29.40;52.50;;;;;;683559;29;836;-86
2022/06/27 01:01:10;;;;;;;;;;;29.50;52.30;;;;;;685125;29;1277;-87
2022/06/27 01:01:31;;;;;;;;;;;29.50;53.00;;;;;;683106;29;1483;-91
2022/06/27 01:01:52;;;;;;;;;;;29.50;53.00;;;;;;680856;29;1532;-91
2022/06/27 01:02:13;;;;;;;;;;;29.50;51.60;;;;;;682057;29;876;-90
2022/06/27 01:02:34;;;;;;;;;;;29.50;51.50;;;;;;681568;29;820;-90
2022/06/27 01:02:54;;;;;;;;;;;29.50;51.70;;;;;;683475;29;799;-90
2022/06/27 01:03:15;;;;;;;;;;;29.50;51.70;;;;;;681139;29;1415;-90
2022/06/27 01:03:35;;;;;;;;;;;29.50;51.40;;;;;;684024;28;796;-90
2022/06/27 01:04:00;;;;;;;;;;;29.40;52.20;;;;;;686269;28;882;-91
2022/06/27 01:04:21;;;;;;;;;;;29.50;51.80;;;;;;686447;28;842;-90
2022/06/27 01:04:42;;;;;;;;;;;29.40;51.80;;;;;;686294;28;759;-91
2022/06/27 01:05:03;;;;;;;;;;;29.50;52.30;;;;;;686216;28;1352;-92
2022/06/27 01:05:24;;;;;;;;;;;29.50;52.10;;;;;;685979;28;1207;-91
2022/06/27 01:05:51;;;;;;;;;;;29.50;52.70;;;;;;686141;28;1296;-89
2022/06/27 01:06:11;;;;;;;;;;;29.50;51.60;;;;;;683422;29;1194;-90
2022/06/27 01:06:32;;;;;;;;;;;29.50;52.30;;;;;;683594;29;863;-91
2022/06/27 01:06:53;;;;;;;;;;;29.50;52.30;;;;;;683231;29;1210;-91
2022/06/27 01:07:13;;;;;;;;;;;29.50;52.80;;;;;;680697;29;1094;-90
2022/06/27 01:07:34;;;;;;;;;;;29.40;52.50;;;;;;679808;29;1507;-92
2022/06/27 01:07:55;;;;;;;;;;;29.50;52.00;;;;;;678476;29;1243;-91
2022/06/27 01:08:15;;;;;;;;;;;29.50;52.60;;;;;;680813;29;780;-90
2022/06/27 01:08:36;;;;;;;;;;;29.50;52.80;;;;;;680819;29;1894;-90
2022/06/27 01:08:57;;;;;;;;;;;29.50;51.80;;;;;;678134;29;886;-91
2022/06/27 01:09:19;;;;;;;;;;;29.50;52.10;;;;;;680860;29;807;-92
2022/06/27 01:09:41;;;;;;;;;;;29.50;52.70;;;;;;681332;29;818;-90
2022/06/27 01:10:01;;;;;;;;;;;29.50;52.00;;;;;;683564;29;808;-91
2022/06/27 01:10:22;;;;;;;;;;;29.50;52.00;;;;;;683338;29;1361;-88
2022/06/27 01:10:42;;;;;;;;;;;29.50;51.80;;;;;;684032;28;1393;-90
2022/06/27 01:11:03;;;;;;;;;;;29.50;51.90;;;;;;686079;28;867;-89
2022/06/27 01:11:24;;;;;;;;;;;29.50;52.70;;;;;;685948;28;1354;-91
2022/06/27 01:11:45;;;;;;;;;;;29.50;52.10;;;;;;685991;28;1321;-90
2022/06/27 01:12:06;;;;;;;;;;;29.50;51.70;;;;;;685996;28;811;-91
2022/06/27 01:12:27;;;;;;;;;;;29.50;53.60;;;;;;683336;29;1209;-91
2022/06/27 01:12:49;;;;;;;;;;;29.40;51.70;;;;;;683495;29;890;-92
2022/06/27 01:13:10;;;;;;;;;;;29.50;52.30;;;;;;683486;29;804;-91
2022/06/27 01:13:31;;;;;;;;;;;29.50;52.00;;;;;;680750;29;1200;-82
2022/06/27 01:13:51;;;;;;;;;;;29.40;52.20;;;;;;680812;29;823;-90
2022/06/27 01:14:12;;;;;;;;;;;29.50;51.70;;;;;;678759;29;1260;-90
2022/06/27 01:14:33;;;;;;;;;;;29.50;51.80;;;;;;680881;29;871;-90
2022/06/27 01:14:53;;;;;;;;;;;30.60;53.10;;;;;;680749;29;799;-90
2022/06/27 01:15:14;;;;;;;;;;;29.50;52.00;;;;;;681227;29;1124;-89
2022/06/27 01:15:34;;;;;;;;;;;29.40;53.10;;;;;;683616;29;812;-91
2022/06/27 01:15:55;;;;;;;;;;;29.50;52.10;;;;;;683797;28;783;-91
2022/06/27 01:16:16;;;;;;;;;;;29.50;52.70;;;;;;683339;29;1520;-92
2022/06/27 01:16:38;;;;;;;;;;;29.50;51.90;;;;;;680809;29;1175;-91
2022/06/27 01:16:58;;;;;;;;;;;29.40;51.90;;;;;;680671;29;1214;-93
2022/06/27 01:17:19;;;;;;;;;;;29.50;52.60;;;;;;680919;29;894;-91
2022/06/27 01:17:40;;;;;;;;;;;29.50;52.80;;;;;;680751;29;1340;-89
2022/06/27 01:18:02;;;;;;;;;;;29.50;52.80;;;;;;681763;29;779;-94
2022/06/27 01:18:25;;;;;;;;;;;29.50;51.50;;;;;;686018;28;1480;-95
2022/06/27 01:18:46;;;;;;;;;;;29.50;53.40;;;;;;686563;28;870;-96
2022/06/27 01:19:12;;;;;;;;;;;29.40;56.20;;;;;;686436;28;822;-94
2022/06/27 01:19:33;;;;;;;;;;;29.40;54.10;;;;;;686920;28;776;-95
2022/06/27 01:19:56;;;;;;;;;;;29.40;52.60;;;;;;683485;29;1245;-93
2022/06/27 01:20:17;;;;;;;;;;;29.40;53.10;;;;;;681328;29;1295;-89
2022/06/27 01:20:44;;;;;;;;;;;29.40;52.60;;;;;;681627;29;1678;-92
2022/06/27 01:21:06;;;;;;;;;;;29.60;51.90;;;;;;683655;29;858;-90
2022/06/27 01:21:27;;;;;;;;;;;29.40;52.00;;;;;;680670;29;1548;-92
2022/06/27 01:21:51;;;;;;;;;;;29.40;51.80;;;;;;682435;29;879;-86
2022/06/27 01:22:12;;;;;;;;;;;29.40;51.80;;;;;;683548;29;834;-91
2022/06/27 01:22:32;;;;;;;;;;;29.40;52.10;;;;;;683833;28;1325;-92
2022/06/27 01:22:53;;;;;;;;;;;29.40;51.30;;;;;;686055;28;969;-86
2022/06/27 01:23:14;;;;;;;;;;;29.40;52.40;;;;;;686177;28;897;-91
2022/06/27 01:23:34;;;;;;;;;;;29.40;52.10;;;;;;686428;28;838;-90
2022/06/27 01:23:55;;;;;;;;;;;29.40;52.60;;;;;;686290;28;965;-92
2022/06/27 01:24:16;;;;;;;;;;;29.40;52.80;;;;;;686084;28;1256;-91
2022/06/27 01:24:37;;;;;;;;;;;29.40;52.10;;;;;;686297;28;870;-91
2022/06/27 01:24:58;;;;;;;;;;;29.40;53.00;;;;;;686022;28;1358;-92
2022/06/27 01:25:20;;;;;;;;;;;29.40;52.60;;;;;;683355;28;1247;-87
2022/06/27 01:25:41;;;;;;;;;;;29.40;51.90;;;;;;683454;29;815;-88
2022/06/27 01:26:02;;;;;;;;;;;29.40;52.60;;;;;;684013;28;776;-83
2022/06/27 01:26:22;;;;;;;;;;;29.40;52.90;;;;;;686230;28;826;-93
2022/06/27 01:26:43;;;;;;;;;;;29.40;52.00;;;;;;686015;28;1364;-89
2022/06/27 01:27:04;;;;;;;;;;;29.40;52.10;;;;;;686256;28;1036;-90
2022/06/27 01:27:25;;;;;;;;;;;29.40;52.10;;;;;;685870;28;1430;-93
2022/06/27 01:27:46;;;;;;;;;;;29.40;51.90;;;;;;686099;28;791;-91
2022/06/27 01:28:08;;;;;;;;;;;29.40;52.00;;;;;;686175;28;795;-94
2022/06/27 01:28:28;;;;;;;;;;;29.40;51.60;;;;;;686006;28;1976;-93
2022/06/27 01:28:49;;;;;;;;;;;29.40;51.30;;;;;;686112;28;989;-92
2022/06/27 01:29:10;;;;;;;;;;;29.40;51.50;;;;;;686167;28;776;-85
2022/06/27 01:29:31;;;;;;;;;;;29.40;51.50;;;;;;686300;28;823;-89
2022/06/27 01:29:51;;;;;;;;;;;29.40;51.90;;;;;;686054;28;1089;-88
2022/06/27 01:30:12;;;;;;;;;;;29.40;51.50;;;;;;683945;28;1338;-91
2022/06/27 01:30:33;;;;;;;;;;;29.40;51.90;;;;;;683431;29;852;-93
2022/06/27 01:30:53;;;;;;;;;;;29.40;51.80;;;;;;683452;29;946;-87
2022/06/27 01:31:15;;;;;;;;;;;29.40;51.60;;;;;;683524;29;835;-91
2022/06/27 01:31:36;;;;;;;;;;;29.30;52.90;;;;;;680754;29;1302;-91
2022/06/27 01:31:56;;;;;;;;;;;29.40;52.10;;;;;;681330;29;776;-89
2022/06/27 01:32:17;;;;;;;;;;;29.40;52.90;;;;;;683909;28;977;-88
2022/06/27 01:32:38;;;;;;;;;;;29.40;52.20;;;;;;686230;28;795;-90
2022/06/27 01:32:58;;;;;;;;;;;29.40;52.40;;;;;;686236;28;791;-95
2022/06/27 01:33:19;;;;;;;;;;;29.40;52.10;;;;;;686329;28;867;-87
2022/06/27 01:33:40;;;;;;;;;;;29.40;53.00;;;;;;686234;28;799;-85
2022/06/27 01:34:00;;;;;;;;;;;29.40;52.60;;;;;;686321;28;850;-93
2022/06/27 01:34:21;;;;;;;;;;;29.40;52.60;;;;;;686329;28;890;-91
2022/06/27 01:34:41;;;;;;;;;;;29.40;52.40;;;;;;686252;28;792;-93
2022/06/27 01:35:03;;;;;;;;;;;29.40;52.60;;;;;;686317;28;823;-92
2022/06/27 01:35:23;;;;;;;;;;;29.30;52.50;;;;;;686336;28;881;-85
2022/06/27 01:35:44;;;;;;;;;;;29.40;52.30;;;;;;686251;28;981;-92
2022/06/27 01:36:46;;;;;;;;;;;29.40;51.90;;;;;;686350;28;697;-91
2022/06/27 01:37:07;;;;;;;;;;;29.40;51.60;;;;;;688629;28;1217;-93
2022/06/27 01:37:29;;;;;;;;;;;29.40;52.00;;;;;;686161;28;1271;-89
2022/06/27 01:37:50;;;;;;;;;;;29.40;52.10;;;;;;683190;29;1225;-93
2022/06/27 01:38:11;;;;;;;;;;;29.40;51.80;;;;;;683504;29;855;-92
2022/06/27 01:38:31;;;;;;;;;;;29.40;51.70;;;;;;680704;29;1463;-92
2022/06/27 01:38:52;;;;;;;;;;;29.40;51.40;;;;;;679500;29;1668;-90
2022/06/27 01:39:13;;;;;;;;;;;29.40;51.50;;;;;;678750;29;811;-91
2022/06/27 01:39:33;;;;;;;;;;;29.40;51.80;;;;;;681348;29;1120;-91
2022/06/27 01:39:56;;;;;;;;;;;29.40;51.60;;;;;;683332;29;1029;-87
2022/06/27 01:40:17;;;;;;;;;;;29.40;51.60;;;;;;680915;29;1339;-94
2022/06/27 01:40:38;;;;;;;;;;;29.40;51.40;;;;;;683476;29;835;-90
2022/06/27 01:41:02;;;;;;;;;;;29.40;51.40;;;;;;683355;29;775;-93
2022/06/27 01:41:22;;;;;;;;;;;29.40;51.10;;;;;;683509;29;889;-84
2022/06/27 01:41:47;;;;;;;;;;;29.40;51.90;;;;;;683397;29;854;-85
2022/06/27 01:42:08;;;;;;;;;;;29.40;51.40;;;;;;683626;29;803;-84
2022/06/27 01:42:29;;;;;;;;;;;29.40;51.90;;;;;;683637;28;882;-92
2022/06/27 01:42:49;;;;;;;;;;;29.40;51.10;;;;;;683569;28;887;-92
2022/06/27 01:43:10;;;;;;;;;;;29.40;51.10;;;;;;683617;28;775;-86
2022/06/27 01:43:30;;;;;;;;;;;29.40;51.00;;;;;;683671;28;803;-92
2022/06/27 01:43:51;;;;;;;;;;;28.70;50.60;;;;;;683242;29;1469;-91
2022/06/27 01:44:12;;;;;;;;;;;29.40;51.10;;;;;;683377;29;779;-91
2022/06/27 01:44:33;;;;;;;;;;;29.40;50.80;;;;;;683423;29;1347;-94
2022/06/27 01:44:54;;;;;;;;;;;29.40;50.90;;;;;;683319;29;831;-92
2022/06/27 01:45:14;;;;;;;;;;;29.40;51.40;;;;;;683341;28;843;-91
2022/06/27 01:45:35;;;;;;;;;;;29.40;50.90;;;;;;683193;29;977;-93
2022/06/27 01:45:55;;;;;;;;;;;29.40;50.90;;;;;;685768;28;1268;-90
2022/06/27 01:46:16;;;;;;;;;;;29.40;51.40;;;;;;686058;28;977;-92
2022/06/27 01:46:46;;;;;;;;;;;29.40;50.70;;;;;;686263;28;879;-87
2022/06/27 01:47:08;;;;;;;;;;;29.50;50.70;;;;;;686263;28;799;-91
2022/06/27 01:47:30;;;;;;;;;;;29.40;50.80;;;;;;686080;28;1432;-93
2022/06/27 01:47:51;;;;;;;;;;;29.40;51.10;;;;;;683215;29;1413;-91
2022/06/27 01:48:12;;;;;;;;;;;29.40;51.80;;;;;;683456;29;851;-93
2022/06/27 01:48:34;;;;;;;;;;;29.50;50.70;;;;;;683377;29;1887;-93
2022/06/27 01:48:55;;;;;;;;;;;29.50;50.60;;;;;;683409;29;867;-92
2022/06/27 01:49:16;;;;;;;;;;;29.50;50.60;;;;;;683484;29;886;-91
2022/06/27 01:49:38;;;;;;;;;;;29.40;50.70;;;;;;683578;29;807;-94
2022/06/27 01:49:58;;;;;;;;;;;29.50;50.60;;;;;;683494;29;784;-92
2022/06/27 01:50:19;;;;;;;;;;;29.50;50.70;;;;;;683279;29;1484;-93
2022/06/27 01:50:42;;;;;;;;;;;29.40;50.40;;;;;;683449;29;795;-93
2022/06/27 01:51:03;;;;;;;;;;;29.50;50.50;;;;;;680365;29;1188;-85
2022/06/27 01:51:24;;;;;;;;;;;29.50;50.40;;;;;;684189;28;1577;-92
2022/06/27 01:51:45;;;;;;;;;;;29.50;50.30;;;;;;683509;29;890;-91
2022/06/27 01:52:07;;;;;;;;;;;29.40;50.40;;;;;;687159;28;760;-92
2022/06/27 01:52:28;;;;;;;;;;;29.50;50.60;;;;;;688708;28;819;-93
2022/06/27 01:52:49;;;;;;;;;;;29.40;50.40;;;;;;688223;28;850;-93
2022/06/27 01:53:10;;;;;;;;;;;30.50;51.10;;;;;;686331;28;1408;-91
2022/06/27 01:53:31;;;;;;;;;;;29.40;50.40;;;;;;686492;28;922;-90
2022/06/27 01:53:52;;;;;;;;;;;29.40;50.50;;;;;;686230;28;940;-92
2022/06/27 01:54:13;;;;;;;;;;;29.50;51.10;;;;;;685960;28;1327;-93
2022/06/27 01:54:35;;;;;;;;;;;29.40;50.30;;;;;;686198;28;1037;-91
2022/06/27 01:54:55;;;;;;;;;;;29.50;50.40;;;;;;685950;28;1479;-92
2022/06/27 01:55:16;;;;;;;;;;;29.40;51.00;;;;;;683256;29;1121;-91
2022/06/27 01:55:37;;;;;;;;;;;29.50;50.40;;;;;;683990;29;816;-87
2022/06/27 01:57:16;;;;;;;;;;;29.50;50.40;;;;;;688687;28;589;-83
2022/06/27 01:57:37;;;;;;;;;;;29.50;50.20;;;;;;686761;28;842;-91
2022/06/27 01:57:57;;;;;;;;;;;29.50;50.30;;;;;;686178;28;953;-88
2022/06/27 01:58:18;;;;;;;;;;;29.50;50.30;;;;;;686103;28;776;-90
2022/06/27 01:58:39;;;;;;;;;;;29.50;50.80;;;;;;685906;28;1242;-84
2022/06/27 01:59:00;;;;;;;;;;;29.50;50.80;;;;;;686125;28;878;-91
2022/06/27 01:59:22;;;;;;;;;;;29.40;50.60;;;;;;685848;28;1103;-90
2022/06/27 01:59:44;;;;;;;;;;;29.40;50.50;;;;;;685937;28;822;-90
2022/06/27 02:00:05;;;;;;;;;;;29.50;50.30;;;;;;686119;28;1232;-90
2022/06/27 02:00:26;;;;;;;;;;;29.50;50.50;;;;;;685746;28;1572;-90
2022/06/27 02:00:46;;;;;;;;;;;29.50;50.40;;;;;;685865;28;1622;-89
2022/06/27 02:01:07;;;;;;;;;;;29.40;50.30;;;;;;686020;28;1694;-89
2022/06/27 02:01:28;;;;;;;;;;;29.50;50.50;;;;;;685932;28;775;-88
2022/06/27 02:01:48;;;;;;;;;;;29.40;50.30;;;;;;686060;28;843;-90
2022/06/27 02:02:09;;;;;;;;;;;29.50;50.50;;;;;;686116;28;906;-86
2022/06/27 02:02:30;;;;;;;;;;;29.50;50.70;;;;;;685805;28;1440;-90
2022/06/27 02:02:50;;;;;;;;;;;29.50;51.10;;;;;;686188;28;882;-87
2022/06/27 02:03:11;;;;;;;;;;;29.40;50.90;;;;;;685981;28;968;-90
2022/06/27 02:03:32;;;;;;;;;;;29.50;50.30;;;;;;686121;28;806;-90
2022/06/27 02:03:53;;;;;;;;;;;29.40;50.50;;;;;;683230;28;1337;-89
2022/06/27 02:04:15;;;;;;;;;;;29.50;50.40;;;;;;683531;28;1194;-90
2022/06/27 02:04:36;;;;;;;;;;;29.50;50.30;;;;;;684224;29;862;-88
2022/06/27 02:04:57;;;;;;;;;;;29.50;50.30;;;;;;683625;29;827;-89
2022/06/27 02:05:17;;;;;;;;;;;29.50;51.00;;;;;;683453;29;933;-87
2022/06/27 02:05:38;;;;;;;;;;;29.50;51.00;;;;;;684047;28;843;-88
2022/06/27 02:05:59;;;;;;;;;;;29.40;50.30;;;;;;686012;28;792;-88
2022/06/27 02:06:19;;;;;;;;;;;29.40;50.10;;;;;;685812;28;1474;-89
2022/06/27 02:06:41;;;;;;;;;;;29.50;50.30;;;;;;685961;28;851;-89
2022/06/27 02:07:01;;;;;;;;;;;29.40;50.30;;;;;;686009;28;1058;-89
2022/06/27 02:07:22;;;;;;;;;;;29.50;51.00;;;;;;685975;28;1002;-89
2022/06/27 02:07:43;;;;;;;;;;;29.40;50.20;;;;;;685947;28;792;-90
2022/06/27 02:08:04;;;;;;;;;;;29.50;50.60;;;;;;686175;28;973;-88
2022/06/27 02:08:27;;;;;;;;;;;29.50;50.30;;;;;;686103;28;803;-89
2022/06/27 02:08:50;;;;;;;;;;;29.50;50.30;;;;;;685814;28;1898;-88
2022/06/27 02:09:12;;;;;;;;;;;29.50;50.30;;;;;;685934;28;1061;-89
2022/06/27 02:09:33;;;;;;;;;;;29.40;50.30;;;;;;686163;28;901;-89
2022/06/27 02:09:53;;;;;;;;;;;29.50;50.20;;;;;;685895;28;898;-86
2022/06/27 02:10:14;;;;;;;;;;;29.40;50.20;;;;;;686047;28;783;-87
2022/06/27 02:10:34;;;;;;;;;;;29.40;50.10;;;;;;686169;28;803;-89
2022/06/27 02:10:56;;;;;;;;;;;29.40;50.20;;;;;;688592;28;1342;-89
2022/06/27 02:11:16;;;;;;;;;;;29.40;50.20;;;;;;688529;28;993;-87
2022/06/27 02:11:38;;;;;;;;;;;29.50;50.10;;;;;;688643;28;1376;-88
2022/06/27 02:12:18;;;;;;;;;;;29.40;49.90;;;;;;688632;28;858;-87
2022/06/27 02:12:39;;;;;;;;;;;29.40;50.10;;;;;;688398;28;870;-83
2022/06/27 02:13:00;;;;;;;;;;;29.40;50.00;;;;;;686222;28;850;-86
2022/06/27 02:13:20;;;;;;;;;;;29.40;50.20;;;;;;686121;28;834;-89
2022/06/27 02:13:41;;;;;;;;;;;29.40;50.20;;;;;;686209;28;835;-88
2022/06/27 02:14:02;;;;;;;;;;;29.40;50.10;;;;;;685976;28;1196;-87